createdAt,value
2018-05-18T00:01:49.015Z,18.27
2018-05-18T00:05:12.352Z,16.77
2018-05-18T00:08:36.439Z,18.23
2018-05-18T00:11:59.736Z,19.60
2018-05-18T00:15:23.082Z,19.53
2018-05-18T00:18:47.219Z,19.20
2018-05-18T00:22:11.351Z,18.97
2018-05-18T00:25:34.683Z,19.23
2018-05-18T00:28:57.959Z,18.10
2018-05-18T00:32:21.252Z,19.07
2018-05-18T00:35:44.530Z,18.50
2018-05-18T00:39:07.806Z,18.17
2018-05-18T00:42:31.985Z,17.73
2018-05-18T00:45:55.264Z,16.63
2018-05-18T00:49:18.633Z,18.53
2018-05-18T00:52:41.969Z,19.57
2018-05-18T00:56:05.252Z,19.73
2018-05-18T00:59:28.587Z,21.60
2018-05-18T01:02:51.843Z,22.00
2018-05-18T01:06:15.189Z,23.03
2018-05-18T01:09:38.475Z,23.93
2018-05-18T01:13:01.895Z,23.60
2018-05-18T01:16:25.179Z,23.03
2018-05-18T01:19:49.273Z,23.23
2018-05-18T01:23:12.613Z,22.83
2018-05-18T01:26:36.697Z,22.77
2018-05-18T01:30:00.809Z,21.07
2018-05-18T01:33:24.441Z,21.70
2018-05-18T01:36:47.726Z,22.93
2018-05-18T01:40:11.019Z,22.50
2018-05-18T01:43:34.372Z,21.23
2018-05-18T01:46:57.645Z,23.00
2018-05-18T01:50:20.935Z,21.83
2018-05-18T01:53:44.201Z,24.73
2018-05-18T01:57:08.312Z,22.90
2018-05-18T02:00:31.642Z,23.73
2018-05-18T02:03:55.759Z,23.37
2018-05-18T02:07:19.097Z,22.87
2018-05-18T02:10:43.179Z,23.77
2018-05-18T02:14:06.457Z,23.00
2018-05-18T02:17:29.827Z,23.97
2018-05-18T02:20:53.081Z,22.43
2018-05-18T02:24:17.205Z,22.83
2018-05-18T02:27:40.574Z,24.10
2018-05-18T02:31:03.823Z,23.43
2018-05-18T02:34:27.918Z,25.50
2018-05-18T02:37:51.201Z,25.33
2018-05-18T02:41:14.476Z,25.07
2018-05-18T02:44:38.567Z,25.70
2018-05-18T02:48:01.840Z,24.93
2018-05-18T02:51:25.129Z,25.03
2018-05-18T02:54:48.430Z,24.97
2018-05-18T02:58:11.772Z,24.97
2018-05-18T03:01:35.855Z,24.97
2018-05-18T03:04:59.218Z,25.67
2018-05-18T03:08:22.492Z,26.47
2018-05-18T03:11:45.760Z,25.73
2018-05-18T03:15:09.807Z,24.57
2018-05-18T03:18:33.074Z,26.33
2018-05-18T03:21:57.168Z,25.40
2018-05-18T03:25:20.474Z,25.33
2018-05-18T03:28:43.817Z,25.47
2018-05-18T03:32:07.169Z,27.17
2018-05-18T03:35:30.459Z,25.70
2018-05-18T03:38:53.816Z,26.47
2018-05-18T03:42:17.243Z,25.33
2018-05-18T03:45:40.598Z,24.03
2018-05-18T03:49:03.880Z,20.50
2018-05-18T03:52:27.286Z,20.43
2018-05-18T03:55:51.395Z,20.37
2018-05-18T03:59:14.661Z,18.63
2018-05-18T04:02:55.853Z,19.20
2018-05-18T04:06:36.949Z,18.47
2018-05-18T04:10:00.213Z,18.70
2018-05-18T04:13:23.499Z,19.13
2018-05-18T04:16:46.811Z,18.37
2018-05-18T04:20:10.169Z,18.47
2018-05-18T04:23:33.571Z,16.73
2018-05-18T04:26:57.667Z,18.40
2018-05-18T04:30:21.046Z,16.97
2018-05-18T04:33:44.392Z,17.73
2018-05-18T04:37:07.747Z,15.87
2018-05-18T04:40:31.032Z,18.57
2018-05-18T04:43:54.363Z,16.40
2018-05-18T04:47:17.667Z,16.07
2018-05-18T04:50:40.991Z,15.50
2018-05-18T04:54:05.046Z,13.90
2018-05-18T04:57:28.329Z,14.77
2018-05-18T05:00:51.694Z,14.70
2018-05-18T05:04:15.040Z,15.43
2018-05-18T05:07:38.408Z,15.87
2018-05-18T05:11:01.772Z,15.60
2018-05-18T05:14:25.116Z,16.37
2018-05-18T05:17:48.540Z,16.93
2018-05-18T05:21:13.960Z,17.10
2018-05-18T05:24:38.077Z,17.17
2018-05-18T05:28:01.369Z,17.57
2018-05-18T05:31:24.650Z,19.00
2018-05-18T05:34:47.942Z,16.17
2018-05-18T05:38:11.330Z,13.93
2018-05-18T05:41:36.165Z,13.70
2018-05-18T05:44:59.460Z,13.37
2018-05-18T05:48:22.775Z,11.87
2018-05-18T05:51:46.828Z,14.30
2018-05-18T05:55:10.136Z,12.90
2018-05-18T05:58:33.441Z,14.00
2018-05-18T06:01:57.523Z,14.27
2018-05-18T06:05:21.633Z,16.60
2018-05-18T06:08:44.895Z,16.93
2018-05-18T06:12:09.020Z,18.70
2018-05-18T06:15:32.218Z,18.50
2018-05-18T06:18:55.508Z,18.23
2018-05-18T06:22:18.786Z,19.27
2018-05-18T06:25:43.414Z,18.47
2018-05-18T06:29:07.480Z,18.63
2018-05-18T06:32:30.825Z,19.17
2018-05-18T06:35:54.227Z,17.90
2018-05-18T06:39:18.295Z,20.57
2018-05-18T06:42:43.079Z,21.27
2018-05-18T06:46:06.381Z,19.50
2018-05-18T06:49:29.692Z,20.60
2018-05-18T06:52:53.794Z,18.83
2018-05-18T06:56:17.078Z,19.23
2018-05-18T06:59:41.380Z,17.80
2018-05-18T07:03:04.694Z,18.90
2018-05-18T07:06:27.978Z,19.23
2018-05-18T07:09:52.766Z,19.93
2018-05-18T07:13:16.048Z,20.63
2018-05-18T07:16:39.365Z,20.93
2018-05-18T07:20:03.541Z,19.03
2018-05-18T07:23:27.589Z,17.57
2018-05-18T07:26:50.887Z,20.03
2018-05-18T07:30:14.937Z,20.77
2018-05-18T07:33:38.299Z,21.23
2018-05-18T07:37:01.631Z,20.60
2018-05-18T07:40:25.751Z,21.47
2018-05-18T07:43:49.118Z,22.03
2018-05-18T07:47:13.181Z,23.00
2018-05-18T07:50:36.466Z,21.40
2018-05-18T07:54:01.634Z,22.27
2018-05-18T07:57:24.917Z,20.17
2018-05-18T08:00:48.221Z,21.23
2018-05-18T08:04:11.497Z,22.90
2018-05-18T08:07:34.841Z,23.90
2018-05-18T08:10:58.154Z,22.43
2018-05-18T08:14:21.467Z,26.00
2018-05-18T08:17:45.528Z,26.53
2018-05-18T08:21:08.814Z,27.00
2018-05-18T08:24:32.087Z,27.27
2018-05-18T08:27:55.392Z,25.43
2018-05-18T08:31:19.462Z,25.23
2018-05-18T08:34:42.736Z,26.53
2018-05-18T08:38:06.024Z,25.10
2018-05-18T08:41:29.309Z,25.57
2018-05-18T08:44:52.739Z,25.87
2018-05-18T08:48:16.062Z,26.17
2018-05-18T08:51:40.114Z,24.43
2018-05-18T08:55:03.406Z,25.43
2018-05-18T08:58:26.685Z,25.03
2018-05-18T09:01:50.002Z,25.33
2018-05-18T09:05:14.043Z,23.97
2018-05-18T09:08:37.455Z,24.47
2018-05-18T09:12:00.754Z,25.27
2018-05-18T09:15:24.038Z,23.63
2018-05-18T09:18:47.324Z,24.90
2018-05-18T09:22:10.705Z,24.27
2018-05-18T09:25:34.771Z,22.80
2018-05-18T09:28:58.071Z,22.17
2018-05-18T09:32:22.266Z,23.00
2018-05-18T09:35:45.694Z,23.87
2018-05-18T09:39:08.978Z,23.33
2018-05-18T09:42:32.409Z,23.30
2018-05-18T09:45:55.697Z,23.47
2018-05-18T09:49:18.974Z,23.00
2018-05-18T09:52:42.287Z,21.60
2018-05-18T09:56:06.344Z,24.03
2018-05-18T09:59:29.623Z,23.67
2018-05-18T10:02:52.947Z,24.53
2018-05-18T10:06:16.995Z,24.60
2018-05-18T10:09:40.276Z,25.27
2018-05-18T10:13:03.560Z,25.40
2018-05-18T10:16:27.006Z,25.60
2018-05-18T10:19:50.278Z,24.87
2018-05-18T10:23:13.557Z,26.00
2018-05-18T10:26:36.923Z,24.90
2018-05-18T10:30:00.220Z,25.37
2018-05-18T10:33:23.526Z,25.90
2018-05-18T10:36:47.611Z,23.90
2018-05-18T10:40:11.735Z,23.77
2018-05-18T10:43:35.180Z,24.00
2018-05-18T10:46:58.459Z,23.70
2018-05-18T10:50:21.764Z,24.90
2018-05-18T10:53:46.930Z,24.53
2018-05-18T10:57:10.213Z,22.33
2018-05-18T11:00:34.357Z,23.03
2018-05-18T11:03:57.652Z,22.40
2018-05-18T11:07:20.942Z,22.37
2018-05-18T11:10:44.998Z,23.43
2018-05-18T11:14:08.341Z,23.23
2018-05-18T11:17:31.584Z,23.40
2018-05-18T11:20:54.873Z,23.17
2018-05-18T11:24:18.203Z,23.10
2018-05-18T11:27:41.518Z,19.90
2018-05-18T11:31:05.582Z,21.50
2018-05-18T11:34:28.866Z,19.80
2018-05-18T11:37:52.248Z,21.20
2018-05-18T11:41:16.277Z,21.47
2018-05-18T11:44:39.603Z,20.97
2018-05-18T11:48:02.943Z,18.93
2018-05-18T11:51:26.957Z,21.40
2018-05-18T11:54:50.360Z,21.80
2018-05-18T11:58:13.665Z,23.87
2018-05-18T12:01:36.982Z,19.93
2018-05-18T12:05:01.786Z,18.53
2018-05-18T12:08:25.166Z,18.63
2018-05-18T12:11:48.504Z,17.70
2018-05-18T12:15:11.848Z,18.40
2018-05-18T12:18:35.199Z,18.40
2018-05-18T12:21:58.486Z,19.63
2018-05-18T12:25:21.785Z,19.00
2018-05-18T12:28:45.069Z,16.50
2018-05-18T12:32:09.128Z,16.57
2018-05-18T12:35:32.417Z,15.17
2018-05-18T12:38:55.710Z,14.13
2018-05-18T12:42:19.008Z,15.07
2018-05-18T12:45:42.292Z,14.30
2018-05-18T12:49:05.557Z,14.33
2018-05-18T12:52:28.837Z,13.13
2018-05-18T12:55:52.192Z,13.33
2018-05-18T12:59:16.539Z,13.70
2018-05-18T13:02:40.760Z,13.13
2018-05-18T13:06:04.806Z,13.60
2018-05-18T13:09:28.851Z,11.77
2018-05-18T13:12:52.899Z,11.10
2018-05-18T13:16:16.232Z,11.33
2018-05-18T13:19:39.490Z,9.37
2018-05-18T13:23:02.781Z,10.27
2018-05-18T13:26:26.057Z,10.43
2018-05-18T13:29:49.334Z,9.77
2018-05-18T13:33:12.758Z,8.40
2018-05-18T13:36:36.041Z,9.37
2018-05-18T13:39:59.334Z,9.20
2018-05-18T13:43:22.627Z,8.60
2018-05-18T13:46:46.037Z,8.50
2018-05-18T13:50:09.327Z,9.27
2018-05-18T13:53:32.629Z,8.30
2018-05-18T13:56:55.975Z,7.90
2018-05-18T14:00:19.389Z,9.03
2018-05-18T14:03:42.642Z,7.80
2018-05-18T14:07:06.757Z,6.87
2018-05-18T14:10:30.041Z,8.30
2018-05-18T14:13:53.332Z,7.90
2018-05-18T14:17:16.640Z,7.73
2018-05-18T14:20:39.932Z,7.50
2018-05-18T14:24:04.036Z,7.77
2018-05-18T14:27:27.311Z,8.03
2018-05-18T14:30:50.609Z,6.87
2018-05-18T14:34:13.899Z,7.70
2018-05-18T14:37:37.182Z,7.60
2018-05-18T14:41:00.509Z,7.80
2018-05-18T14:44:24.556Z,8.37
2018-05-18T14:47:47.876Z,7.70
2018-05-18T14:51:12.074Z,7.73
2018-05-18T14:54:36.100Z,8.80
2018-05-18T14:57:59.371Z,7.77
2018-05-18T15:01:22.849Z,7.40
2018-05-18T15:04:46.133Z,7.90
2018-05-18T15:08:09.405Z,7.77
2018-05-18T15:11:33.543Z,8.03
2018-05-18T15:14:56.949Z,8.13
2018-05-18T15:18:20.378Z,7.63
2018-05-18T15:21:43.805Z,7.37
2018-05-18T15:25:07.085Z,6.80
2018-05-18T15:28:30.382Z,6.83
2018-05-18T15:31:53.664Z,6.57
2018-05-18T15:35:16.949Z,6.60
2018-05-18T15:38:40.212Z,6.43
2018-05-18T15:42:03.517Z,8.57
2018-05-18T15:45:26.804Z,8.80
2018-05-18T15:48:50.103Z,8.73
2018-05-18T15:52:13.375Z,7.70
2018-05-18T15:55:36.673Z,8.07
2018-05-18T15:58:59.937Z,7.70
2018-05-18T16:02:23.221Z,8.17
2018-05-18T16:05:53.636Z,8.17
2018-05-18T16:09:16.992Z,8.10
2018-05-18T16:12:40.357Z,9.33
2018-05-18T16:16:03.866Z,9.23
2018-05-18T16:19:27.252Z,8.00
2018-05-18T16:23:02.003Z,8.23
2018-05-18T16:26:28.403Z,8.03
2018-05-18T16:29:51.818Z,8.60
2018-05-18T16:33:22.950Z,8.20
2018-05-18T16:36:46.765Z,9.43
2018-05-18T16:40:10.147Z,8.90
2018-05-18T16:43:33.909Z,8.57
2018-05-18T16:46:57.250Z,8.97
2018-05-18T16:50:21.245Z,8.30
2018-05-18T16:53:45.269Z,7.77
2018-05-18T16:57:08.580Z,7.77
2018-05-18T17:00:31.902Z,7.77
2018-05-18T17:03:55.565Z,7.37
2018-05-18T17:07:19.067Z,7.37
2018-05-18T17:10:42.393Z,7.30
2018-05-18T17:14:06.499Z,7.47
2018-05-18T17:17:29.790Z,8.13
2018-05-18T17:20:53.068Z,7.90
2018-05-18T17:24:16.356Z,7.90
2018-05-18T17:27:39.623Z,8.10
2018-05-18T17:31:03.065Z,8.73
2018-05-18T17:34:26.348Z,8.50
2018-05-18T17:37:49.659Z,8.37
2018-05-18T17:41:13.008Z,8.23
2018-05-18T17:44:36.516Z,8.43
2018-05-18T17:47:59.933Z,7.30
2018-05-18T17:51:23.229Z,7.20
2018-05-18T17:54:46.553Z,7.90
2018-05-18T17:58:09.937Z,7.20
2018-05-18T18:01:35.014Z,7.13
2018-05-18T18:04:59.834Z,7.20
2018-05-18T18:08:23.148Z,6.90
2018-05-18T18:11:46.630Z,6.73
2018-05-18T18:15:09.901Z,7.10
2018-05-18T18:18:33.293Z,7.07
2018-05-18T18:21:56.617Z,6.67
2018-05-18T18:25:19.953Z,7.83
2018-05-18T18:28:45.305Z,7.10
2018-05-18T18:32:10.774Z,7.83
2018-05-18T18:35:34.061Z,7.43
2018-05-18T18:38:57.561Z,6.70
2018-05-18T18:42:20.934Z,7.27
2018-05-18T18:45:44.357Z,7.87
2018-05-18T18:49:07.686Z,8.43
2018-05-18T18:52:30.999Z,7.83
2018-05-18T18:55:54.351Z,8.37
2018-05-18T18:59:17.699Z,7.40
2018-05-18T19:02:40.982Z,7.50
2018-05-18T19:06:05.077Z,8.07
2018-05-18T19:09:28.418Z,9.77
2018-05-18T19:12:51.832Z,8.00
2018-05-18T19:16:15.173Z,8.77
2018-05-18T19:19:40.046Z,8.80
2018-05-18T19:23:03.762Z,8.77
2018-05-18T19:26:27.100Z,8.63
2018-05-18T19:29:50.473Z,9.17
2018-05-18T19:33:13.814Z,9.17
2018-05-18T19:36:37.233Z,9.47
2018-05-18T19:40:00.456Z,8.50
2018-05-18T19:43:23.769Z,7.97
2018-05-18T19:46:47.107Z,8.23
2018-05-18T19:50:10.428Z,8.07
2018-05-18T19:53:33.774Z,8.60
2018-05-18T19:56:57.869Z,8.37
2018-05-18T20:00:22.383Z,7.63
2018-05-18T20:03:46.479Z,7.57
2018-05-18T20:07:09.808Z,7.93
2018-05-18T20:10:33.141Z,7.83
2018-05-18T20:13:56.498Z,8.67
2018-05-18T20:17:19.847Z,8.20
2018-05-18T20:20:43.321Z,8.13
2018-05-18T20:24:08.230Z,8.00
2018-05-18T20:27:31.551Z,8.13
2018-05-18T20:30:54.863Z,8.17
2018-05-18T20:34:18.159Z,8.60
2018-05-18T20:37:41.484Z,8.80
2018-05-18T20:41:05.619Z,7.97
2018-05-18T20:44:28.985Z,8.17
2018-05-18T20:47:52.328Z,8.97
2018-05-18T20:51:15.689Z,8.60
2018-05-18T20:54:39.300Z,7.93
2018-05-18T20:58:03.406Z,7.90
2018-05-18T21:01:26.804Z,7.77
2018-05-18T21:04:50.928Z,7.73
2018-05-18T21:08:14.274Z,8.43
2018-05-18T21:11:37.569Z,8.53
2018-05-18T21:15:00.935Z,9.00
2018-05-18T21:18:24.415Z,7.87
2018-05-18T21:21:47.705Z,7.87
2018-05-18T21:25:11.209Z,8.20
2018-05-18T21:28:34.617Z,8.10
2018-05-18T21:31:58.801Z,9.03
2018-05-18T21:35:22.134Z,8.93
2018-05-18T21:38:45.438Z,8.37
2018-05-18T21:42:08.719Z,7.87
2018-05-18T21:45:32.031Z,8.33
2018-05-18T21:48:55.399Z,8.30
2018-05-18T21:52:19.660Z,7.83
2018-05-18T21:55:42.945Z,8.57
2018-05-18T21:59:06.283Z,8.67
2018-05-18T22:02:29.589Z,8.90
2018-05-18T22:05:52.865Z,8.50
2018-05-18T22:09:16.223Z,8.67
2018-05-18T22:12:39.505Z,9.40
2018-05-18T22:16:02.779Z,9.67
2018-05-18T22:19:26.913Z,8.23
2018-05-18T22:22:50.947Z,8.63
2018-05-18T22:26:15.041Z,8.97
2018-05-18T22:29:38.347Z,8.67
2018-05-18T22:33:01.800Z,8.07
2018-05-18T22:36:25.877Z,9.13
2018-05-18T22:39:49.334Z,9.43
2018-05-18T22:43:12.737Z,8.87
2018-05-18T22:46:36.142Z,8.93
2018-05-18T22:49:59.566Z,8.97
2018-05-18T22:53:22.994Z,9.77
2018-05-18T22:56:46.293Z,9.17
2018-05-18T23:00:09.657Z,9.50
2018-05-18T23:03:34.537Z,9.53
2018-05-18T23:06:57.818Z,8.90
2018-05-18T23:10:21.163Z,9.53
2018-05-18T23:13:44.446Z,10.03
2018-05-18T23:17:07.817Z,9.90
2018-05-18T23:20:31.239Z,9.67
2018-05-18T23:23:54.509Z,9.33
2018-05-18T23:27:17.807Z,9.53
2018-05-18T23:30:41.096Z,10.33
2018-05-18T23:34:04.430Z,10.07
2018-05-18T23:37:27.777Z,9.80
2018-05-18T23:40:51.887Z,9.73
2018-05-18T23:44:15.325Z,9.83
2018-05-18T23:47:38.652Z,10.33
2018-05-18T23:51:02.772Z,9.53
2018-05-18T23:54:26.178Z,10.20
2018-05-18T23:57:49.459Z,9.93
